• Join FlightAware (Why Join?)
  • Login
  • US Flag 
03:55AM EST


 

Airport Tracker/Info


-or-


 

Live Flight TrackerFlight Track Log ✈ N802CT ✈ 29-Jul-2013 ✈ KBMI - KDNV

Flight Track Log - Related Links

Times and Time Zones

All times are in EDT time to prevent confusion due to time zone crossing. See the N802CT flight status page for this flight to view local times or setup timezone preferences in your user account.

Time Position Orientation Groundspeed Altitude Reporting Facility
EDT Latitude Longitude Course Direction KTS MPH feet Rate Location/Type
02:58PM 40.4547 -88.8325 105° East 97 112 3,600  Level Chicago Center
02:59PM 40.4428 -88.7906 111° Southeast 109 125 3,600  Level Chicago Center
03:00PM 40.4300 -88.7528 114° Southeast 113 130 3,600  Level Chicago Center
03:01PM 40.4161 -88.7128 115° Southeast 117 135 3,600  Level Chicago Center
03:02PM 40.4287 -88.6796 105° East  Level Estimated
03:02PM 40.4058 -88.6722 108° East 117 135 3,600  Level Chicago Center
03:03PM 40.4206 -88.6402 105° East  Level Estimated
03:03PM 40.4028 -88.6275 95° East 119 137 3,600  Level Chicago Center
03:04PM 40.4042 -88.5733 88° East 121 139 3,500 -120 Descending Chicago Center
03:05PM 40.4044 -88.5286 90° East 123 142 3,400 -120 Descending Chicago Center
03:06PM 40.4006 -88.4844 97° East 123 142 3,300 -60 Descending Chicago Center
03:07PM 40.3914 -88.4425 106° East 121 139 3,300 -60 Level Chicago Center
03:08PM 40.3828 -88.3986 104° East 122 140 3,200 -60 Descending Chicago Center
03:09PM 40.3736 -88.3561 106° East 122 140 3,200  Level Chicago Center
03:11PM 40.3604 -88.3018 108° East  Level FlightAware Approximate
03:18PM 40.2942 -88.0303 108° East  Level FlightAware Approximate
03:19PM 40.2847 -87.9915 108° East  Level FlightAware Approximate
03:20PM 40.2752 -87.9528 108° East  Level FlightAware Approximate
03:21PM 40.2657 -87.9141 108° East  Level FlightAware Approximate
03:22PM 40.2561 -87.8754 108° East  Level FlightAware Approximate
03:23PM 40.2465 -87.8367 108° East  Level FlightAware Approximate
03:24PM 40.2370 -87.7980 108° East  Level FlightAware Approximate
03:25PM 40.2272 -87.7589 108° East  Level FlightAware Approximate
03:26PM 40.2176 -87.7203 108° East  Level FlightAware Approximate
03:27PM 40.2079 -87.6816 108° East  Level FlightAware Approximate
03:28PM 40.1983 -87.6430 108° East  Level FlightAware Approximate
03:29PM 40.1886 -87.6044 108° East  Level FlightAware Approximate
03:30PM 40.1833 -87.5833 108° East  Level FlightAware Approximate